createdAt,value
2022-10-11T00:00:05.687Z,13.25
2022-10-11T00:00:14.233Z,13.25
2022-10-11T00:00:25.676Z,13.26
2022-10-11T00:00:34.228Z,13.25
2022-10-11T00:00:45.673Z,13.26
2022-10-11T00:00:56.800Z,13.21
2022-10-11T00:01:06.762Z,13.24
2022-10-11T00:01:16.302Z,13.25
2022-10-11T00:01:25.317Z,13.26
2022-10-11T00:01:36.818Z,13.26
2022-10-11T00:01:45.332Z,13.26
2022-10-11T00:01:55.283Z,13.27
2022-10-11T00:02:05.276Z,13.27
2022-10-11T00:02:15.284Z,13.27
2022-10-11T00:02:26.592Z,13.27
2022-10-11T00:02:35.254Z,13.27
2022-10-11T00:02:45.287Z,13.28
2022-10-11T00:02:55.293Z,13.29
2022-10-11T00:03:06.723Z,13.28
2022-10-11T00:03:15.264Z,13.28
2022-10-11T00:03:26.704Z,13.29
2022-10-11T00:03:36.205Z,13.28
2022-10-11T00:03:45.254Z,13.29
2022-10-11T00:03:55.312Z,13.29
2022-10-11T00:04:06.695Z,13.30
2022-10-11T00:04:16.204Z,13.28
2022-10-11T00:04:25.414Z,13.30
2022-10-11T00:04:35.241Z,13.31
2022-10-11T00:04:46.704Z,13.31
2022-10-11T00:04:56.704Z,13.30
2022-10-11T00:05:05.455Z,13.31
2022-10-11T00:05:15.286Z,13.32
2022-10-11T00:05:26.694Z,13.31
2022-10-11T00:05:36.195Z,13.31
2022-10-11T00:05:45.485Z,13.32
2022-10-11T00:05:55.265Z,13.31
2022-10-11T00:06:07.307Z,13.32
2022-10-11T00:06:15.447Z,13.31
2022-10-11T00:06:25.556Z,13.33
2022-10-11T00:06:36.785Z,13.33
2022-10-11T00:06:46.806Z,13.31
2022-10-11T00:06:55.544Z,13.32
2022-10-11T00:07:05.561Z,13.32
2022-10-11T00:07:16.785Z,13.32
2022-10-11T00:07:26.815Z,13.32
2022-10-11T00:07:35.566Z,13.33
2022-10-11T00:07:45.325Z,13.33
2022-10-11T00:07:56.804Z,13.32
2022-10-11T00:08:06.831Z,13.32
2022-10-11T00:08:15.336Z,13.33
2022-10-11T00:08:26.797Z,13.34
2022-10-11T00:08:36.806Z,13.33
2022-10-11T00:08:46.837Z,13.33
2022-10-11T00:08:55.647Z,13.34
2022-10-11T00:09:05.686Z,13.35
2022-10-11T00:09:15.340Z,13.34
2022-10-11T00:09:25.356Z,13.34
2022-10-11T00:09:36.766Z,13.35
2022-10-11T00:09:45.326Z,13.34
2022-10-11T00:09:55.453Z,13.35
2022-10-11T00:10:05.327Z,13.35
2022-10-11T00:10:15.325Z,13.36
2022-10-11T00:10:26.815Z,13.36
2022-10-11T00:10:35.327Z,13.35
2022-10-11T00:10:46.267Z,13.36
2022-10-11T00:10:56.776Z,13.36
2022-10-11T00:11:05.486Z,13.35
2022-10-11T00:11:16.216Z,13.37
2022-10-11T00:11:25.327Z,13.36
2022-10-11T00:11:36.276Z,13.36
2022-10-11T00:11:45.416Z,13.34
2022-10-11T00:11:56.756Z,13.34
2022-10-11T00:12:05.336Z,13.31
2022-10-11T00:12:15.336Z,13.31
2022-10-11T00:12:27.255Z,13.29
2022-10-11T00:12:35.327Z,13.26
2022-10-11T00:12:45.327Z,13.26
2022-10-11T00:12:56.777Z,13.25
2022-10-11T00:13:05.307Z,13.23
2022-10-11T00:13:16.277Z,13.24
2022-10-11T00:13:25.307Z,13.22
2022-10-11T00:13:35.318Z,13.22
2022-10-11T00:13:46.229Z,13.21
2022-10-11T00:13:55.307Z,13.21
2022-10-11T00:14:06.759Z,13.21
2022-10-11T00:14:15.306Z,13.19
2022-10-11T00:14:25.314Z,13.21
2022-10-11T00:14:35.297Z,13.19
2022-10-11T00:14:46.174Z,13.19
2022-10-11T00:14:56.738Z,13.17
2022-10-11T00:15:06.740Z,13.17
2022-10-11T00:15:15.287Z,13.16
2022-10-11T00:15:25.288Z,13.15
2022-10-11T00:15:35.308Z,13.15
2022-10-11T00:15:45.298Z,13.14
2022-10-11T00:15:55.275Z,13.14
2022-10-11T00:16:05.587Z,13.12
2022-10-11T00:16:16.746Z,13.12
2022-10-11T00:16:26.229Z,13.11
2022-10-11T00:16:36.738Z,13.12
2022-10-11T00:16:45.259Z,13.09
2022-10-11T00:16:55.327Z,13.10
2022-10-11T00:17:06.767Z,13.09
2022-10-11T00:17:16.148Z,13.06
2022-10-11T00:17:25.287Z,13.04
2022-10-11T00:17:35.302Z,13.03
2022-10-11T00:17:46.728Z,13.03
2022-10-11T00:17:55.310Z,13.01
2022-10-11T00:18:05.623Z,13.01
2022-10-11T00:18:16.725Z,12.99
2022-10-11T00:18:26.713Z,12.97
2022-10-11T00:18:35.270Z,12.98
2022-10-11T00:18:46.728Z,12.98
2022-10-11T00:18:56.219Z,12.97
2022-10-11T00:19:05.344Z,12.97
2022-10-11T00:19:15.252Z,12.97
2022-10-11T00:19:25.289Z,12.96
2022-10-11T00:19:35.286Z,12.95
2022-10-11T00:19:46.168Z,12.95
2022-10-11T00:19:56.708Z,12.94
2022-10-11T00:20:06.712Z,12.94
2022-10-11T00:20:15.236Z,12.95
2022-10-11T00:20:25.288Z,12.96
2022-10-11T00:20:36.091Z,12.96
2022-10-11T00:20:46.739Z,12.96
2022-10-11T00:20:55.250Z,12.95
2022-10-11T00:21:05.259Z,12.96
2022-10-11T00:21:15.240Z,12.97
2022-10-11T00:21:26.749Z,12.97
2022-10-11T00:21:36.190Z,12.96
2022-10-11T00:21:45.249Z,12.97
2022-10-11T00:21:55.259Z,12.97
2022-10-11T00:22:06.201Z,12.98
2022-10-11T00:22:16.698Z,12.94
2022-10-11T00:22:25.230Z,12.91
2022-10-11T00:22:35.231Z,12.89
2022-10-11T00:22:45.240Z,12.87
2022-10-11T00:22:55.271Z,12.86
2022-10-11T00:23:05.241Z,12.84
2022-10-11T00:23:16.714Z,12.83
2022-10-11T00:23:26.773Z,12.81
2022-10-11T00:23:36.673Z,12.79
2022-10-11T00:23:46.038Z,12.76
2022-10-11T00:23:55.247Z,12.73
2022-10-11T00:24:05.270Z,12.71
2022-10-11T00:24:15.208Z,12.69
2022-10-11T00:24:26.719Z,12.68
2022-10-11T00:24:35.480Z,12.65
2022-10-11T00:24:45.210Z,12.66
2022-10-11T00:24:56.672Z,12.64
2022-10-11T00:25:05.220Z,12.63
2022-10-11T00:25:15.269Z,12.65
2022-10-11T00:25:25.454Z,12.63
2022-10-11T00:25:35.492Z,12.63
2022-10-11T00:25:45.250Z,12.62
2022-10-11T00:25:55.475Z,12.61
2022-10-11T00:26:05.431Z,12.62
2022-10-11T00:26:15.249Z,12.61
2022-10-11T00:26:25.221Z,12.61
2022-10-11T00:26:35.230Z,12.61
2022-10-11T00:26:46.930Z,12.62
2022-10-11T00:26:55.460Z,12.61
2022-10-11T00:27:06.653Z,12.63
2022-10-11T00:27:15.540Z,12.62
2022-10-11T00:27:25.463Z,12.63
2022-10-11T00:27:35.498Z,12.64
2022-10-11T00:27:45.540Z,12.64
2022-10-11T00:27:55.569Z,12.64
2022-10-11T00:28:05.501Z,12.64
2022-10-11T00:28:16.701Z,12.64
2022-10-11T00:28:25.598Z,12.64
2022-10-11T00:28:35.557Z,12.65
2022-10-11T00:28:46.714Z,12.65
2022-10-11T00:28:55.275Z,12.65
2022-10-11T00:29:06.635Z,12.66
2022-10-11T00:29:16.171Z,12.65
2022-10-11T00:29:25.221Z,12.65
2022-10-11T00:29:35.190Z,12.66
2022-10-11T00:29:45.202Z,12.65
2022-10-11T00:29:56.641Z,12.63
2022-10-11T00:30:06.648Z,12.62
2022-10-11T00:30:16.211Z,12.60
2022-10-11T00:30:26.631Z,12.59
2022-10-11T00:30:35.252Z,12.58
2022-10-11T00:30:45.182Z,12.60
2022-10-11T00:30:55.372Z,12.58
2022-10-11T00:31:07.168Z,12.56
2022-10-11T00:31:15.211Z,12.52
2022-10-11T00:31:26.071Z,12.53
2022-10-11T00:31:36.699Z,12.51
2022-10-11T00:31:45.169Z,12.51
2022-10-11T00:31:55.199Z,12.53
2022-10-11T00:32:05.253Z,12.52
2022-10-11T00:32:15.213Z,12.51
2022-10-11T00:32:26.623Z,12.52
2022-10-11T00:32:35.702Z,12.51
2022-10-11T00:32:45.181Z,12.51
2022-10-11T00:32:55.292Z,12.51
2022-10-11T00:33:05.162Z,12.51
2022-10-11T00:33:15.187Z,12.51
2022-10-11T00:33:26.654Z,12.51
2022-10-11T00:33:36.633Z,12.48
2022-10-11T00:33:45.172Z,12.47
2022-10-11T00:33:55.179Z,12.48
2022-10-11T00:34:06.645Z,12.47
2022-10-11T00:34:16.622Z,12.46
2022-10-11T00:34:26.623Z,12.45
2022-10-11T00:34:35.172Z,12.44
2022-10-11T00:34:45.266Z,12.45
2022-10-11T00:34:55.199Z,12.44
2022-10-11T00:35:05.224Z,12.43
2022-10-11T00:35:16.633Z,12.42
2022-10-11T00:35:26.612Z,12.41
2022-10-11T00:35:36.094Z,12.41
2022-10-11T00:35:46.196Z,12.41
2022-10-11T00:35:55.153Z,12.41
2022-10-11T00:36:07.099Z,12.42
2022-10-11T00:36:16.724Z,12.39
2022-10-11T00:36:27.038Z,12.40
2022-10-11T00:36:35.280Z,12.39
2022-10-11T00:36:45.281Z,12.40
2022-10-11T00:36:56.740Z,12.39
2022-10-11T00:37:05.292Z,12.38
2022-10-11T00:37:15.283Z,12.38
2022-10-11T00:37:25.283Z,12.36
2022-10-11T00:37:36.724Z,12.35
2022-10-11T00:37:46.722Z,12.33
2022-10-11T00:37:56.757Z,12.32
2022-10-11T00:38:05.266Z,12.32
2022-10-11T00:38:16.712Z,12.33
2022-10-11T00:38:25.255Z,12.31
2022-10-11T00:38:35.267Z,12.33
2022-10-11T00:38:46.704Z,12.32
2022-10-11T00:38:55.401Z,12.31
2022-10-11T00:39:06.684Z,12.32
2022-10-11T00:39:15.266Z,12.27
2022-10-11T00:39:25.544Z,12.29
2022-10-11T00:39:36.694Z,12.26
2022-10-11T00:39:45.294Z,12.23
2022-10-11T00:39:55.265Z,12.24
2022-10-11T00:40:06.716Z,12.23
2022-10-11T00:40:15.243Z,12.22
2022-10-11T00:40:25.244Z,12.24
2022-10-11T00:40:35.253Z,12.24
2022-10-11T00:40:45.253Z,12.24
2022-10-11T00:40:55.283Z,12.23
2022-10-11T00:41:05.595Z,12.23
2022-10-11T00:41:15.251Z,12.22
2022-10-11T00:41:26.694Z,12.21
2022-10-11T00:41:36.739Z,12.20
2022-10-11T00:41:46.202Z,12.21
2022-10-11T00:41:56.674Z,12.21
2022-10-11T00:42:05.225Z,12.21
2022-10-11T00:42:16.674Z,12.22
2022-10-11T00:42:26.673Z,12.22
2022-10-11T00:42:36.685Z,12.20
2022-10-11T00:42:46.684Z,12.19
2022-10-11T00:42:56.695Z,12.18
2022-10-11T00:43:05.253Z,12.18
2022-10-11T00:43:15.205Z,12.18
2022-10-11T00:43:25.235Z,12.17
2022-10-11T00:43:36.685Z,12.16
2022-10-11T00:43:46.668Z,12.13
2022-10-11T00:43:56.725Z,12.11
2022-10-11T00:44:05.215Z,12.10
2022-10-11T00:44:15.284Z,12.11
2022-10-11T00:44:26.676Z,12.11
2022-10-11T00:44:35.824Z,12.08
2022-10-11T00:44:45.225Z,12.09
2022-10-11T00:44:56.674Z,12.10
2022-10-11T00:45:05.207Z,12.09
2022-10-11T00:45:15.355Z,12.11
2022-10-11T00:45:25.196Z,12.11
2022-10-11T00:45:35.216Z,12.12
2022-10-11T00:45:45.216Z,12.12
2022-10-11T00:45:55.215Z,12.13
2022-10-11T00:46:07.204Z,12.13
2022-10-11T00:46:16.695Z,12.13
2022-10-11T00:46:26.708Z,12.13
2022-10-11T00:46:35.416Z,12.13
2022-10-11T00:46:45.255Z,12.14
2022-10-11T00:46:56.099Z,12.14
2022-10-11T00:47:05.945Z,12.13
2022-10-11T00:47:16.187Z,12.14
2022-10-11T00:47:26.091Z,12.14
2022-10-11T00:47:35.267Z,12.14
2022-10-11T00:47:45.318Z,12.14
2022-10-11T00:47:55.247Z,12.12
2022-10-11T00:48:05.257Z,12.10
2022-10-11T00:48:15.260Z,12.09
2022-10-11T00:48:25.256Z,12.08
2022-10-11T00:48:35.742Z,12.07
2022-10-11T00:48:46.686Z,12.07
2022-10-11T00:48:55.260Z,12.07
2022-10-11T00:49:06.171Z,12.09
2022-10-11T00:49:16.688Z,12.08
2022-10-11T00:49:25.267Z,12.06
2022-10-11T00:49:36.697Z,12.08
2022-10-11T00:49:46.689Z,12.07
2022-10-11T00:49:55.916Z,12.08
2022-10-11T00:50:05.863Z,12.07
2022-10-11T00:50:16.686Z,12.07
2022-10-11T00:50:25.228Z,12.04
2022-10-11T00:50:36.694Z,12.03
2022-10-11T00:50:46.697Z,11.99
2022-10-11T00:50:56.177Z,11.98
2022-10-11T00:51:07.122Z,11.97
2022-10-11T00:51:16.218Z,11.94
2022-10-11T00:51:25.246Z,11.96
2022-10-11T00:51:36.708Z,11.95
2022-10-11T00:51:46.678Z,11.93
2022-10-11T00:51:55.248Z,11.93
2022-10-11T00:52:05.237Z,11.95
2022-10-11T00:52:15.245Z,11.94
2022-10-11T00:52:25.238Z,11.93
2022-10-11T00:52:36.679Z,11.93
2022-10-11T00:52:45.248Z,11.91
2022-10-11T00:52:55.235Z,11.92
2022-10-11T00:53:06.701Z,11.91
2022-10-11T00:53:16.177Z,11.89
2022-10-11T00:53:26.683Z,11.90
2022-10-11T00:53:35.227Z,11.88
2022-10-11T00:53:45.217Z,11.89
2022-10-11T00:53:55.267Z,11.88
2022-10-11T00:54:05.234Z,11.87
2022-10-11T00:54:15.197Z,11.87
2022-10-11T00:54:25.228Z,11.87
2022-10-11T00:54:35.288Z,11.85
2022-10-11T00:54:45.213Z,11.83
2022-10-11T00:54:56.122Z,11.81
2022-10-11T00:55:05.278Z,11.80
2022-10-11T00:55:15.210Z,11.80
2022-10-11T00:55:25.198Z,11.80
2022-10-11T00:55:35.278Z,11.80
2022-10-11T00:55:46.653Z,11.79
2022-10-11T00:55:55.208Z,11.79
2022-10-11T00:56:05.545Z,11.80
2022-10-11T00:56:15.211Z,11.78
2022-10-11T00:56:26.698Z,11.79
2022-10-11T00:56:35.218Z,11.78
2022-10-11T00:56:45.198Z,11.79
2022-10-11T00:56:55.363Z,11.79
2022-10-11T00:57:05.401Z,11.79
2022-10-11T00:57:15.429Z,11.77
2022-10-11T00:57:25.365Z,11.77
2022-10-11T00:57:35.188Z,11.77
2022-10-11T00:57:45.459Z,11.75
2022-10-11T00:57:55.362Z,11.74
2022-10-11T00:58:06.656Z,11.72
2022-10-11T00:58:15.325Z,11.69
2022-10-11T00:58:25.178Z,11.69
2022-10-11T00:58:35.398Z,11.68
2022-10-11T00:58:45.177Z,11.68
2022-10-11T00:58:55.257Z,11.68
2022-10-11T00:59:06.629Z,11.67
2022-10-11T00:59:16.662Z,11.66
2022-10-11T00:59:25.218Z,11.66
2022-10-11T00:59:35.180Z,11.67
2022-10-11T00:59:45.188Z,11.67
2022-10-11T00:59:56.668Z,11.67
2022-10-11T01:00:06.620Z,11.66
2022-10-11T01:00:16.650Z,11.67
2022-10-11T01:00:26.631Z,11.68
2022-10-11T01:00:35.190Z,11.68
2022-10-11T01:00:45.189Z,11.68
2022-10-11T01:00:56.665Z,11.68
2022-10-11T01:01:06.703Z,11.67
2022-10-11T01:01:15.258Z,11.67
2022-10-11T01:01:26.766Z,11.67
2022-10-11T01:01:36.655Z,11.66
2022-10-11T01:01:46.156Z,11.67
2022-10-11T01:01:56.621Z,11.68
2022-10-11T01:02:06.603Z,11.68
2022-10-11T01:02:16.137Z,11.69
2022-10-11T01:02:25.210Z,11.69
2022-10-11T01:02:35.187Z,11.70
2022-10-11T01:02:45.151Z,11.71
2022-10-11T01:02:55.212Z,11.71
2022-10-11T01:03:05.139Z,11.70
2022-10-11T01:03:16.611Z,11.69
2022-10-11T01:03:25.153Z,11.68
2022-10-11T01:03:35.160Z,11.69
2022-10-11T01:03:45.160Z,11.69
2022-10-11T01:03:55.407Z,11.70
2022-10-11T01:04:06.580Z,11.70
2022-10-11T01:04:16.594Z,11.69
2022-10-11T01:04:26.190Z,11.70
2022-10-11T01:04:36.594Z,11.70
2022-10-11T01:04:45.141Z,11.69
2022-10-11T01:05:18.024Z,11.70
2022-10-11T01:05:28.837Z,11.65
2022-10-11T01:05:29.165Z,11.63
2022-10-11T01:05:29.514Z,11.61
2022-10-11T01:05:35.492Z,11.60
2022-10-11T01:05:45.598Z,11.63
2022-10-11T01:05:55.491Z,11.65
2022-10-11T01:06:06.010Z,11.64
2022-10-11T01:06:15.570Z,11.64
2022-10-11T01:06:26.951Z,11.64
2022-10-11T01:06:36.932Z,11.63
2022-10-11T01:06:45.505Z,11.63
2022-10-11T01:06:55.521Z,11.65
2022-10-11T01:07:05.471Z,11.64
2022-10-11T01:07:15.482Z,11.65
2022-10-11T01:07:26.931Z,11.65
2022-10-11T01:07:35.484Z,11.63
2022-10-11T01:07:45.701Z,11.65
2022-10-11T01:07:56.912Z,11.63
2022-10-11T01:08:05.483Z,11.63
2022-10-11T01:08:15.480Z,11.64
2022-10-11T01:08:25.476Z,11.64
2022-10-11T01:08:35.480Z,11.64
2022-10-11T01:08:45.488Z,11.65
2022-10-11T01:08:56.941Z,11.65
2022-10-11T01:09:06.920Z,11.65
2022-10-11T01:09:16.954Z,11.66
2022-10-11T01:09:25.473Z,11.66
2022-10-11T01:09:36.921Z,11.67
2022-10-11T01:09:46.453Z,11.67
2022-10-11T01:09:55.474Z,11.68
2022-10-11T01:10:05.484Z,11.68
2022-10-11T01:10:16.441Z,11.67
2022-10-11T01:10:26.925Z,11.66
2022-10-11T01:10:35.892Z,11.63
2022-10-11T01:10:45.592Z,11.61
2022-10-11T01:10:55.470Z,11.59
2022-10-11T01:11:06.405Z,11.58
2022-10-11T01:11:15.459Z,11.57
2022-10-11T01:11:26.914Z,11.57
2022-10-11T01:11:36.884Z,11.55
2022-10-11T01:11:46.892Z,11.55
2022-10-11T01:11:56.912Z,11.55
2022-10-11T01:12:06.914Z,11.56
2022-10-11T01:12:16.893Z,11.56
2022-10-11T01:12:25.466Z,11.56
2022-10-11T01:12:36.902Z,11.57
2022-10-11T01:12:46.884Z,11.56
2022-10-11T01:12:56.892Z,11.56
2022-10-11T01:13:05.432Z,11.55
2022-10-11T01:13:15.460Z,11.57
2022-10-11T01:13:26.902Z,11.55
2022-10-11T01:13:36.396Z,11.53
2022-10-11T01:13:46.882Z,11.53
2022-10-11T01:13:55.640Z,11.51
2022-10-11T01:14:06.913Z,11.51
2022-10-11T01:14:16.390Z,11.49
2022-10-11T01:14:25.475Z,11.48
2022-10-11T01:14:36.124Z,11.47
2022-10-11T01:14:45.414Z,11.46
2022-10-11T01:14:56.093Z,11.45
2022-10-11T01:15:05.444Z,11.42
2022-10-11T01:15:16.002Z,11.43
2022-10-11T01:15:25.412Z,11.43
2022-10-11T01:15:36.139Z,11.44
2022-10-11T01:15:46.862Z,11.43
2022-10-11T01:15:55.456Z,11.43
2022-10-11T01:16:05.844Z,11.44
2022-10-11T01:16:16.381Z,11.43
2022-10-11T01:16:25.416Z,11.44
2022-10-11T01:16:36.874Z,11.44
2022-10-11T01:16:46.413Z,11.42
2022-10-11T01:16:55.423Z,11.43
2022-10-11T01:17:05.415Z,11.44
2022-10-11T01:17:15.544Z,11.44
2022-10-11T01:17:26.846Z,11.44
2022-10-11T01:17:36.244Z,11.44
2022-10-11T01:17:46.854Z,11.45
2022-10-11T01:17:55.403Z,11.43
2022-10-11T01:18:06.864Z,11.44
2022-10-11T01:18:16.390Z,11.42
2022-10-11T01:18:25.404Z,11.43
2022-10-11T01:18:35.428Z,11.43
2022-10-11T01:18:45.394Z,11.43
2022-10-11T01:18:56.374Z,11.43
2022-10-11T01:19:06.853Z,11.43
2022-10-11T01:19:16.845Z,11.44
2022-10-11T01:19:25.420Z,11.44
2022-10-11T01:19:35.399Z,11.44
2022-10-11T01:19:45.393Z,11.42
2022-10-11T01:19:55.424Z,11.40
2022-10-11T01:20:05.394Z,11.37
2022-10-11T01:20:16.245Z,11.36
2022-10-11T01:20:26.824Z,11.32
2022-10-11T01:20:35.446Z,11.31
2022-10-11T01:20:45.382Z,11.32
2022-10-11T01:20:56.844Z,11.29
2022-10-11T01:21:05.399Z,11.28
2022-10-11T01:21:16.886Z,11.29
2022-10-11T01:21:25.388Z,11.28
2022-10-11T01:21:35.395Z,11.27
2022-10-11T01:21:45.422Z,11.28
2022-10-11T01:21:56.836Z,11.27
2022-10-11T01:22:06.825Z,11.26
2022-10-11T01:22:15.368Z,11.26
2022-10-11T01:22:26.830Z,11.28
2022-10-11T01:22:35.375Z,11.26
2022-10-11T01:22:45.385Z,11.26
2022-10-11T01:22:55.382Z,11.26
2022-10-11T01:23:06.827Z,11.27
2022-10-11T01:23:16.805Z,11.26
2022-10-11T01:23:25.364Z,11.26
2022-10-11T01:23:36.825Z,11.26
2022-10-11T01:23:46.805Z,11.24
2022-10-11T01:23:56.842Z,11.23
2022-10-11T01:24:08.791Z,11.23
2022-10-11T01:24:15.383Z,11.20
2022-10-11T01:24:26.833Z,11.22
2022-10-11T01:24:35.363Z,11.22
2022-10-11T01:24:45.384Z,11.23
2022-10-11T01:24:55.367Z,11.23
2022-10-11T01:25:05.354Z,11.23
2022-10-11T01:25:16.834Z,11.22
2022-10-11T01:25:25.347Z,11.20
2022-10-11T01:25:36.807Z,11.22
2022-10-11T01:25:45.345Z,11.21
2022-10-11T01:25:55.348Z,11.22
2022-10-11T01:26:07.257Z,11.23
2022-10-11T01:26:15.335Z,11.22
2022-10-11T01:26:25.423Z,11.24
2022-10-11T01:26:35.348Z,11.23
2022-10-11T01:26:45.350Z,11.23
2022-10-11T01:26:56.116Z,11.21
2022-10-11T01:27:06.786Z,11.19
2022-10-11T01:27:15.346Z,11.19
2022-10-11T01:27:25.326Z,11.20
2022-10-11T01:27:36.793Z,11.19
2022-10-11T01:27:46.775Z,11.18
2022-10-11T01:27:55.666Z,11.18
2022-10-11T01:28:05.330Z,11.19
2022-10-11T01:28:16.855Z,11.18
2022-10-11T01:28:25.358Z,11.17
2022-10-11T01:28:35.409Z,11.18
2022-10-11T01:28:46.838Z,11.17
2022-10-11T01:28:55.936Z,11.17
2022-10-11T01:29:05.919Z,11.18
2022-10-11T01:29:15.946Z,11.18
2022-10-11T01:29:26.760Z,11.18
2022-10-11T01:29:35.335Z,11.17
2022-10-11T01:29:45.958Z,11.19
2022-10-11T01:29:55.596Z,11.17
2022-10-11T01:30:05.308Z,11.14
2022-10-11T01:30:15.366Z,11.12
2022-10-11T01:30:25.308Z,11.11
2022-10-11T01:30:35.926Z,11.10
2022-10-11T01:30:45.296Z,11.08
2022-10-11T01:30:56.795Z,11.07
2022-10-11T01:31:05.287Z,11.04
2022-10-11T01:31:15.969Z,11.03
2022-10-11T01:31:26.739Z,10.99
2022-10-11T01:31:47.456Z,10.89
2022-10-11T01:31:56.859Z,10.92
2022-10-11T01:32:07.093Z,10.92
2022-10-11T01:32:16.836Z,10.92
2022-10-11T01:32:26.852Z,10.91
2022-10-11T01:32:36.837Z,10.90
2022-10-11T01:32:46.874Z,10.88
2022-10-11T01:32:58.277Z,10.87
2022-10-11T01:33:08.276Z,10.85
2022-10-11T01:33:18.333Z,10.85
2022-10-11T01:33:26.967Z,10.85
2022-10-11T01:33:36.839Z,10.86
2022-10-11T01:33:46.864Z,10.85
2022-10-11T01:33:56.827Z,10.84
2022-10-11T01:34:06.830Z,10.84
2022-10-11T01:34:16.839Z,10.84
2022-10-11T01:34:28.305Z,10.83
2022-10-11T01:34:37.206Z,10.80
2022-10-11T01:34:48.268Z,10.81
2022-10-11T01:34:58.278Z,10.79
2022-10-11T01:35:08.271Z,10.78
2022-10-11T01:35:17.618Z,10.78
2022-10-11T01:35:26.815Z,10.79
2022-10-11T01:35:38.278Z,10.79
2022-10-11T01:35:46.834Z,10.78
2022-10-11T01:35:56.835Z,10.80
2022-10-11T01:36:07.314Z,10.80
2022-10-11T01:36:16.868Z,10.79
2022-10-11T01:36:26.835Z,10.79
2022-10-11T01:36:38.267Z,10.80
2022-10-11T01:36:48.258Z,10.78
2022-10-11T01:36:58.331Z,10.78
2022-10-11T01:37:08.248Z,10.77
2022-10-11T01:37:18.258Z,10.76
2022-10-11T01:37:27.749Z,10.75
2022-10-11T01:37:38.260Z,10.76
2022-10-11T01:37:46.791Z,10.76
2022-10-11T01:37:57.624Z,10.77
2022-10-11T01:38:06.868Z,10.76
2022-10-11T01:38:18.229Z,10.76
2022-10-11T01:38:26.828Z,10.74
2022-10-11T01:38:38.292Z,10.74
2022-10-11T01:38:48.239Z,10.73
2022-10-11T01:38:57.531Z,10.73
2022-10-11T01:39:06.898Z,10.73
2022-10-11T01:39:16.780Z,10.73
2022-10-11T01:39:27.737Z,10.72
2022-10-11T01:39:36.898Z,10.70
2022-10-11T01:39:46.777Z,10.69
2022-10-11T01:39:56.798Z,10.66
2022-10-11T01:40:08.228Z,10.65
2022-10-11T01:40:16.908Z,10.62
2022-10-11T01:40:26.780Z,10.62
2022-10-11T01:40:36.822Z,10.62
2022-10-11T01:40:48.248Z,10.62
2022-10-11T01:40:58.210Z,10.59
2022-10-11T01:41:08.223Z,10.59
2022-10-11T01:41:18.219Z,10.58
2022-10-11T01:41:28.219Z,10.58
2022-10-11T01:41:38.241Z,10.55
2022-10-11T01:41:48.291Z,10.54
2022-10-11T01:41:58.237Z,10.55
2022-10-11T01:42:08.229Z,10.55
2022-10-11T01:42:16.750Z,10.55
2022-10-11T01:42:28.222Z,10.57
2022-10-11T01:42:38.200Z,10.56
2022-10-11T01:42:46.781Z,10.56
2022-10-11T01:42:57.666Z,10.56
2022-10-11T01:43:06.784Z,10.55
2022-10-11T01:43:18.218Z,10.56
2022-10-11T01:43:26.759Z,10.55
2022-10-11T01:43:36.754Z,10.56
2022-10-11T01:43:48.480Z,10.56
2022-10-11T01:43:56.764Z,10.56
2022-10-11T01:44:07.540Z,10.56
2022-10-11T01:44:16.790Z,10.55
2022-10-11T01:44:28.230Z,10.56
2022-10-11T01:44:38.189Z,10.55
2022-10-11T01:44:48.200Z,10.54
2022-10-11T01:44:56.740Z,10.54
2022-10-11T01:45:06.790Z,10.55
2022-10-11T01:45:16.770Z,10.55
2022-10-11T01:45:28.214Z,10.54
2022-10-11T01:45:38.185Z,10.54
2022-10-11T01:45:46.753Z,10.54
2022-10-11T01:45:56.751Z,10.56
2022-10-11T01:46:08.567Z,10.56
2022-10-11T01:46:16.741Z,10.55
2022-10-11T01:46:27.734Z,10.57
2022-10-11T01:46:36.731Z,10.56
2022-10-11T01:46:46.779Z,10.57
2022-10-11T01:46:56.790Z,10.57
2022-10-11T01:47:08.161Z,10.57
2022-10-11T01:47:16.731Z,10.56
2022-10-11T01:47:26.740Z,10.56
2022-10-11T01:47:38.210Z,10.56
2022-10-11T01:47:46.781Z,10.53
2022-10-11T01:47:56.750Z,10.55
2022-10-11T01:48:06.771Z,10.53
2022-10-11T01:48:16.790Z,10.52
2022-10-11T01:48:28.186Z,10.50
2022-10-11T01:48:36.860Z,10.47
2022-10-11T01:48:46.790Z,10.46
2022-10-11T01:48:56.830Z,10.46
2022-10-11T01:49:06.699Z,10.45
2022-10-11T01:49:16.730Z,10.44
2022-10-11T01:49:27.541Z,10.44
2022-10-11T01:49:36.760Z,10.43
2022-10-11T01:49:48.143Z,10.43
2022-10-11T01:49:56.720Z,10.42
2022-10-11T01:50:08.175Z,10.44
2022-10-11T01:50:16.701Z,10.43
2022-10-11T01:50:26.719Z,10.44
2022-10-11T01:50:36.711Z,10.44
2022-10-11T01:50:46.712Z,10.43
2022-10-11T01:50:58.161Z,10.43
2022-10-11T01:51:06.891Z,10.41
2022-10-11T01:51:18.151Z,10.41
2022-10-11T01:51:28.140Z,10.40
2022-10-11T01:51:38.182Z,10.41
2022-10-11T01:51:47.783Z,10.40
2022-10-11T01:51:58.165Z,10.41
2022-10-11T01:52:08.152Z,10.40
2022-10-11T01:52:17.661Z,10.41
2022-10-11T01:52:26.689Z,10.41
2022-10-11T01:52:38.143Z,10.41
2022-10-11T01:52:48.152Z,10.40
2022-10-11T01:52:56.702Z,10.41
2022-10-11T01:53:08.162Z,10.41
2022-10-11T01:53:18.132Z,10.41
2022-10-11T01:53:28.184Z,10.40
2022-10-11T01:53:38.123Z,10.41
2022-10-11T01:53:46.696Z,10.40
2022-10-11T01:53:56.694Z,10.41
2022-10-11T01:54:07.604Z,10.41
2022-10-11T01:54:18.141Z,10.40
2022-10-11T01:54:39.277Z,10.39
2022-10-11T01:55:03.884Z,10.35
2022-10-11T01:55:08.108Z,10.32
2022-10-11T01:55:09.265Z,10.29
2022-10-11T01:55:09.958Z,10.27
2022-10-11T01:55:17.163Z,10.25
2022-10-11T01:55:27.102Z,10.28
2022-10-11T01:55:37.152Z,10.28
2022-10-11T01:55:47.153Z,10.27
2022-10-11T01:55:57.183Z,10.27
2022-10-11T01:56:07.817Z,10.26
2022-10-11T01:56:17.101Z,10.24
2022-10-11T01:56:28.553Z,10.24
2022-10-11T01:56:38.552Z,10.22
2022-10-11T01:56:48.062Z,10.23
2022-10-11T01:56:57.189Z,10.23
2022-10-11T01:57:08.543Z,10.24
2022-10-11T01:57:18.073Z,10.23
2022-10-11T01:57:28.552Z,10.24
2022-10-11T01:57:38.572Z,10.24
2022-10-11T01:57:48.074Z,10.23
2022-10-11T01:57:58.558Z,10.24
2022-10-11T01:58:08.543Z,10.23
2022-10-11T01:58:17.143Z,10.24
2022-10-11T01:58:28.594Z,10.25
2022-10-11T01:58:37.113Z,10.24
2022-10-11T01:58:47.114Z,10.24
2022-10-11T01:58:58.543Z,10.24
2022-10-11T01:59:08.533Z,10.23
2022-10-11T01:59:18.033Z,10.24
2022-10-11T01:59:28.559Z,10.25
2022-10-11T01:59:37.091Z,10.25
2022-10-11T01:59:47.104Z,10.27
2022-10-11T01:59:58.566Z,10.27
2022-10-11T02:00:08.514Z,10.27
2022-10-11T02:00:17.524Z,10.27
2022-10-11T02:00:27.076Z,10.29
2022-10-11T02:00:37.085Z,10.29
2022-10-11T02:00:47.113Z,10.30
2022-10-11T02:00:57.074Z,10.29
2022-10-11T02:01:08.560Z,10.29
2022-10-11T02:01:17.146Z,10.28
2022-10-11T02:01:27.221Z,10.29
2022-10-11T02:01:38.597Z,10.29
2022-10-11T02:01:47.146Z,10.28
2022-10-11T02:01:57.136Z,10.29
2022-10-11T02:02:08.524Z,10.30
2022-10-11T02:02:18.514Z,10.28
2022-10-11T02:02:27.061Z,10.30
2022-10-11T02:02:37.064Z,10.31
2022-10-11T02:02:48.513Z,10.30
2022-10-11T02:02:57.074Z,10.27
2022-10-11T02:03:07.062Z,10.29
2022-10-11T02:03:18.567Z,10.28
2022-10-11T02:03:27.064Z,10.25
2022-10-11T02:03:38.508Z,10.26
2022-10-11T02:03:48.524Z,10.22
2022-10-11T02:03:58.505Z,10.22
2022-10-11T02:04:07.995Z,10.20
2022-10-11T02:04:18.494Z,10.21
2022-10-11T02:04:27.895Z,10.21
2022-10-11T02:04:38.514Z,10.21
2022-10-11T02:04:47.035Z,10.21
2022-10-11T02:04:57.045Z,10.23
2022-10-11T02:05:07.831Z,10.22
2022-10-11T02:05:17.054Z,10.23
2022-10-11T02:05:28.494Z,10.23
2022-10-11T02:05:37.045Z,10.23
2022-10-11T02:05:48.023Z,10.23
2022-10-11T02:05:58.497Z,10.21
2022-10-11T02:06:07.718Z,10.20
2022-10-11T02:06:17.044Z,10.19
2022-10-11T02:06:28.496Z,10.18
2022-10-11T02:06:38.495Z,10.15
2022-10-11T02:06:47.045Z,10.15
2022-10-11T02:06:57.027Z,10.16
2022-10-11T02:07:07.035Z,10.14
2022-10-11T02:07:17.035Z,10.14
2022-10-11T02:07:28.505Z,10.14
2022-10-11T02:07:37.105Z,10.13
2022-10-11T02:07:47.015Z,10.14
2022-10-11T02:07:57.035Z,10.13
2022-10-11T02:08:07.056Z,10.13
2022-10-11T02:08:18.449Z,10.12
2022-10-11T02:08:27.068Z,10.12
2022-10-11T02:08:37.035Z,10.13
2022-10-11T02:08:47.013Z,10.12
2022-10-11T02:08:57.019Z,10.11